createdAt,value
2018-06-14T00:01:58.177Z,100580.63
2018-06-14T00:04:26.746Z,100586.41
2018-06-14T00:06:55.283Z,100592.25
2018-06-14T00:09:24.095Z,100589.81
2018-06-14T00:11:52.689Z,100576.61
2018-06-14T00:14:21.260Z,100574.09
2018-06-14T00:16:49.897Z,100572.91
2018-06-14T00:19:18.848Z,100580.23
2018-06-14T00:21:48.911Z,100576.42
2018-06-14T00:24:18.156Z,100577.81
2018-06-14T00:26:46.639Z,100582.58
2018-06-14T00:29:15.329Z,100591.25
2018-06-14T00:31:43.841Z,100590.83
2018-06-14T00:34:12.374Z,100600.94
2018-06-14T00:36:40.866Z,100595.44
2018-06-14T00:39:09.665Z,100590.43
2018-06-14T00:41:38.202Z,100584.12
2018-06-14T00:44:06.786Z,100587.20
2018-06-14T00:46:35.762Z,100591.10
2018-06-14T00:49:04.405Z,100597.59
2018-06-14T00:51:32.986Z,100595.52
2018-06-14T00:54:01.559Z,100598.20
2018-06-14T00:56:36.777Z,100594.41
2018-06-14T00:59:05.367Z,100594.02
2018-06-14T01:01:34.036Z,100588.11
2018-06-14T01:04:02.631Z,100586.87
2018-06-14T01:06:31.186Z,100582.67
2018-06-14T01:08:59.740Z,100581.47
2018-06-14T01:11:28.350Z,100589.63
2018-06-14T01:13:56.948Z,100588.80
2018-06-14T01:16:25.574Z,100599.08
2018-06-14T01:18:54.520Z,100607.80
2018-06-14T01:21:23.156Z,100607.88
2018-06-14T01:23:51.747Z,100608.36
2018-06-14T01:26:20.377Z,100605.44
2018-06-14T01:28:48.952Z,100613.61
2018-06-14T01:31:17.595Z,100617.05
2018-06-14T01:33:46.086Z,100611.50
2018-06-14T01:36:14.661Z,100611.59
2018-06-14T01:38:43.276Z,100612.59
2018-06-14T01:41:11.893Z,100613.52
2018-06-14T01:43:40.518Z,100615.71
2018-06-14T01:46:09.115Z,100610.23
2018-06-14T01:48:37.743Z,100612.39
2018-06-14T01:51:06.328Z,100620.44
2018-06-14T01:53:35.094Z,100622.56
2018-06-14T01:56:03.725Z,100623.02
2018-06-14T01:58:32.352Z,100619.70
2018-06-14T02:01:01.580Z,100622.77
2018-06-14T02:03:30.420Z,100629.68
2018-06-14T02:05:58.937Z,100628.40
2018-06-14T02:08:27.702Z,100631.44
2018-06-14T02:10:56.356Z,100637.91
2018-06-14T02:13:25.034Z,100632.42
2018-06-14T02:15:53.760Z,100631.61
2018-06-14T02:18:22.347Z,100627.00
2018-06-14T02:20:51.194Z,100617.23
2018-06-14T02:23:19.795Z,100622.74
2018-06-14T02:25:48.361Z,100624.51
2018-06-14T02:28:17.014Z,100632.22
2018-06-14T02:30:45.519Z,100631.38
2018-06-14T02:33:14.250Z,100632.28
2018-06-14T02:35:42.923Z,100635.67
2018-06-14T02:38:11.624Z,100641.69
2018-06-14T02:40:40.142Z,100639.22
2018-06-14T02:43:08.645Z,100642.17
2018-06-14T02:45:37.146Z,100649.91
2018-06-14T02:48:05.888Z,100649.53
2018-06-14T02:50:34.458Z,100649.52
2018-06-14T02:53:03.043Z,100649.16
2018-06-14T02:55:31.641Z,100656.46
2018-06-14T02:58:00.194Z,100652.61
2018-06-14T03:00:28.712Z,100649.73
2018-06-14T03:02:57.234Z,100649.69
2018-06-14T03:05:25.803Z,100651.85
2018-06-14T03:07:54.410Z,100655.69
2018-06-14T03:10:22.929Z,100658.27
2018-06-14T03:12:51.453Z,100659.98
2018-06-14T03:15:19.989Z,100661.28
2018-06-14T03:17:48.514Z,100658.84
2018-06-14T03:20:21.559Z,100654.23
2018-06-14T03:22:50.198Z,100659.34
2018-06-14T03:25:18.763Z,100656.83
2018-06-14T03:27:47.591Z,100662.73
2018-06-14T03:30:16.154Z,100660.59
2018-06-14T03:32:44.706Z,100658.90
2018-06-14T03:35:13.278Z,100660.59
2018-06-14T03:37:41.791Z,100662.69
2018-06-14T03:40:10.367Z,100658.84
2018-06-14T03:42:43.018Z,100653.23
2018-06-14T03:45:16.707Z,100657.48
2018-06-14T03:47:46.351Z,100650.65
2018-06-14T03:50:15.206Z,100658.25
2018-06-14T03:52:43.709Z,100649.23
2018-06-14T03:55:12.281Z,100655.62
2018-06-14T03:57:40.807Z,100653.87
2018-06-14T04:00:09.416Z,100651.20
2018-06-14T04:02:37.962Z,100651.32
2018-06-14T04:05:06.644Z,100651.93
2018-06-14T04:07:35.365Z,100653.23
2018-06-14T04:10:04.208Z,100652.02
2018-06-14T04:12:32.823Z,100645.94
2018-06-14T04:15:01.373Z,100646.73
2018-06-14T04:17:29.873Z,100650.13
2018-06-14T04:19:58.407Z,100648.83
2018-06-14T04:22:27.087Z,100649.59
2018-06-14T04:24:55.629Z,100646.98
2018-06-14T04:27:24.400Z,100642.59
2018-06-14T04:29:52.961Z,100643.86
2018-06-14T04:32:21.503Z,100641.49
2018-06-14T04:34:50.068Z,100635.81
2018-06-14T04:37:18.622Z,100633.48
2018-06-14T04:39:47.245Z,100632.63
2018-06-14T04:42:15.797Z,100632.89
2018-06-14T04:44:44.948Z,100634.53
2018-06-14T04:47:13.487Z,100640.95
2018-06-14T04:49:42.152Z,100632.23
2018-06-14T04:52:10.884Z,100636.81
2018-06-14T04:54:39.380Z,100630.88
2018-06-14T04:57:07.951Z,100629.52
2018-06-14T04:59:36.578Z,100629.38
2018-06-14T05:02:05.396Z,100632.77
2018-06-14T05:04:34.103Z,100633.94
2018-06-14T05:07:02.626Z,100628.34
2018-06-14T05:09:31.210Z,100623.61
2018-06-14T05:11:59.759Z,100628.20
2018-06-14T05:14:28.340Z,100624.62
2018-06-14T05:16:56.947Z,100626.23
2018-06-14T05:19:25.562Z,100631.69
2018-06-14T05:21:54.124Z,100631.48
2018-06-14T05:24:23.169Z,100627.56
2018-06-14T05:26:51.703Z,100631.61
2018-06-14T05:29:20.268Z,100630.69
2018-06-14T05:31:48.859Z,100628.81
2018-06-14T05:34:17.378Z,100633.97
2018-06-14T05:36:45.865Z,100638.89
2018-06-14T05:39:14.492Z,100639.44
2018-06-14T05:41:43.087Z,100640.56
2018-06-14T05:44:11.558Z,100643.70
2018-06-14T05:46:40.091Z,100636.24
2018-06-14T05:49:08.670Z,100641.80
2018-06-14T05:51:37.126Z,100647.69
2018-06-14T05:54:05.802Z,100644.28
2018-06-14T05:56:34.260Z,100648.86
2018-06-14T05:59:03.166Z,100647.14
2018-06-14T06:01:31.825Z,100642.61
2018-06-14T06:04:00.358Z,100646.02
2018-06-14T06:06:28.905Z,100633.33
2018-06-14T06:08:57.391Z,100632.34
2018-06-14T06:11:25.864Z,100641.54
2018-06-14T06:13:54.434Z,100639.68
2018-06-14T06:16:23.050Z,100641.36
2018-06-14T06:18:51.590Z,100649.55
2018-06-14T06:21:20.139Z,100640.11
2018-06-14T06:23:48.714Z,100647.77
2018-06-14T06:26:17.326Z,100639.63
2018-06-14T06:28:45.936Z,100641.20
2018-06-14T06:31:14.510Z,100640.37
2018-06-14T06:33:43.075Z,100642.66
2018-06-14T06:36:11.684Z,100636.06
2018-06-14T06:38:40.280Z,100635.22
2018-06-14T06:41:08.841Z,100631.95
2018-06-14T06:43:37.374Z,100637.88
2018-06-14T06:46:05.936Z,100633.01
2018-06-14T06:48:34.568Z,100636.66
2018-06-14T06:51:03.045Z,100630.80
2018-06-14T06:53:31.576Z,100626.68
2018-06-14T06:56:00.191Z,100624.98
2018-06-14T06:58:28.882Z,100626.05
2018-06-14T07:00:57.460Z,100625.06
2018-06-14T07:03:25.991Z,100622.88
2018-06-14T07:05:54.594Z,100619.60
2018-06-14T07:08:23.065Z,100627.71
2018-06-14T07:10:51.643Z,100626.31
2018-06-14T07:13:20.125Z,100621.43
2018-06-14T07:15:48.767Z,100613.77
2018-06-14T07:18:17.589Z,100621.97
2018-06-14T07:20:46.080Z,100616.67
2018-06-14T07:23:14.704Z,100612.38
2018-06-14T07:25:43.629Z,100606.91
2018-06-14T07:28:12.246Z,100599.14
2018-06-14T07:30:40.843Z,100601.72
2018-06-14T07:33:09.524Z,100599.13
2018-06-14T07:35:38.159Z,100597.88
2018-06-14T07:38:06.746Z,100599.11
2018-06-14T07:40:35.330Z,100600.78
2018-06-14T07:43:03.833Z,100600.54
2018-06-14T07:45:32.347Z,100593.70
2018-06-14T07:48:00.921Z,100603.30
2018-06-14T07:50:29.506Z,100600.77
2018-06-14T07:52:58.190Z,100600.11
2018-06-14T07:55:26.753Z,100604.95
2018-06-14T07:57:55.357Z,100604.28
2018-06-14T08:00:23.947Z,100604.87
2018-06-14T08:02:52.432Z,100607.02
2018-06-14T08:05:21.039Z,100601.12
2018-06-14T08:07:49.691Z,100598.56
2018-06-14T08:10:18.437Z,100592.54
2018-06-14T08:12:47.044Z,100594.16
2018-06-14T08:15:15.607Z,100596.14
2018-06-14T08:17:44.148Z,100589.64
2018-06-14T08:20:12.818Z,100593.98
2018-06-14T08:22:41.625Z,100587.95
2018-06-14T08:25:10.196Z,100588.39
2018-06-14T08:27:38.803Z,100583.84
2018-06-14T08:30:07.422Z,100586.52
2018-06-14T08:32:36.123Z,100580.70
2018-06-14T08:35:04.827Z,100590.19
2018-06-14T08:37:33.355Z,100589.73
2018-06-14T08:40:02.027Z,100586.70
2018-06-14T08:42:30.686Z,100587.78
2018-06-14T08:44:59.270Z,100581.59
2018-06-14T08:47:27.782Z,100583.33
2018-06-14T08:49:56.447Z,100586.71
2018-06-14T08:52:25.087Z,100583.41
2018-06-14T08:54:53.616Z,100575.75
2018-06-14T08:57:22.210Z,100576.48
2018-06-14T08:59:50.808Z,100577.17
2018-06-14T09:02:19.390Z,100578.71
2018-06-14T09:04:48.208Z,100577.82
2018-06-14T09:07:16.782Z,100566.98
2018-06-14T09:09:45.779Z,100566.20
2018-06-14T09:12:14.577Z,100568.25
2018-06-14T09:14:43.188Z,100560.01
2018-06-14T09:17:11.689Z,100558.80
2018-06-14T09:19:40.262Z,100559.77
2018-06-14T09:22:08.848Z,100561.60
2018-06-14T09:24:37.478Z,100567.76
2018-06-14T09:27:06.041Z,100566.53
2018-06-14T09:29:34.647Z,100563.33
2018-06-14T09:32:03.384Z,100563.09
2018-06-14T09:34:31.989Z,100560.55
2018-06-14T09:37:00.608Z,100558.61
2018-06-14T09:39:29.208Z,100557.06
2018-06-14T09:41:57.726Z,100557.43
2018-06-14T09:44:26.292Z,100558.06
2018-06-14T09:46:54.974Z,100554.77
2018-06-14T09:49:23.527Z,100545.00
2018-06-14T09:51:52.150Z,100547.91
2018-06-14T09:54:20.685Z,100544.30
2018-06-14T09:56:49.311Z,100544.52
2018-06-14T09:59:17.860Z,100539.75
2018-06-14T10:01:46.544Z,100541.22
2018-06-14T10:04:15.322Z,100544.12
2018-06-14T10:06:43.852Z,100545.00
2018-06-14T10:09:13.190Z,100542.00
2018-06-14T10:11:41.798Z,100539.81
2018-06-14T10:14:10.366Z,100540.91
2018-06-14T10:16:38.999Z,100538.72
2018-06-14T10:19:07.529Z,100532.06
2018-06-14T10:21:36.187Z,100534.84
2018-06-14T10:24:04.741Z,100536.66
2018-06-14T10:26:33.630Z,100525.95
2018-06-14T10:29:02.247Z,100532.30
2018-06-14T10:31:30.886Z,100537.58
2018-06-14T10:33:59.450Z,100535.19
2018-06-14T10:36:28.135Z,100530.89
2018-06-14T10:38:56.798Z,100515.91
2018-06-14T10:41:25.339Z,100519.22
2018-06-14T10:43:54.019Z,100523.23
2018-06-14T10:46:22.633Z,100529.41
2018-06-14T10:48:51.105Z,100521.47
2018-06-14T10:51:19.617Z,100517.39
2018-06-14T10:53:48.134Z,100516.42
2018-06-14T10:56:16.669Z,100510.52
2018-06-14T10:58:45.216Z,100502.28
2018-06-14T11:01:13.835Z,100511.89
2018-06-14T11:03:42.369Z,100513.23
2018-06-14T11:06:10.916Z,100515.76
2018-06-14T11:08:39.429Z,100510.31
2018-06-14T11:11:08.001Z,100503.84
2018-06-14T11:13:36.544Z,100505.27
2018-06-14T11:16:05.198Z,100502.28
2018-06-14T11:18:33.767Z,100508.66
2018-06-14T11:21:02.309Z,100499.30
2018-06-14T11:23:30.884Z,100498.74
2018-06-14T11:25:59.467Z,100500.02
2018-06-14T11:28:28.050Z,100494.34
2018-06-14T11:30:56.722Z,100494.17
2018-06-14T11:33:25.289Z,100492.77
2018-06-14T11:35:53.829Z,100490.05
2018-06-14T11:38:22.721Z,100475.27
2018-06-14T11:40:51.303Z,100473.12
2018-06-14T11:43:19.842Z,100470.36
2018-06-14T11:45:48.515Z,100468.58
2018-06-14T11:48:17.122Z,100470.08
2018-06-14T11:50:45.551Z,100469.30
2018-06-14T11:53:14.019Z,100458.97
2018-06-14T11:55:42.540Z,100452.75
2018-06-14T11:58:11.079Z,100453.41
2018-06-14T12:00:39.618Z,100447.09
2018-06-14T12:03:08.274Z,100437.78
2018-06-14T12:05:36.730Z,100436.84
2018-06-14T12:08:05.281Z,100432.21
2018-06-14T12:10:33.839Z,100433.67
2018-06-14T12:13:02.442Z,100423.83
2018-06-14T12:15:31.043Z,100420.67
2018-06-14T12:17:59.575Z,100417.73
2018-06-14T12:20:28.119Z,100423.48
2018-06-14T12:22:56.610Z,100417.06
2018-06-14T12:25:25.136Z,100417.62
2018-06-14T12:27:53.708Z,100417.34
2018-06-14T12:30:22.508Z,100415.12
2018-06-14T12:32:51.052Z,100408.00
2018-06-14T12:35:19.627Z,100413.06
2018-06-14T12:37:48.288Z,100408.41
2018-06-14T12:40:16.757Z,100403.49
2018-06-14T12:42:45.330Z,100403.58
2018-06-14T12:45:13.815Z,100405.22
2018-06-14T12:47:42.296Z,100394.84
2018-06-14T12:50:10.814Z,100397.36
2018-06-14T12:52:39.301Z,100379.22
2018-06-14T12:55:07.929Z,100370.14
2018-06-14T12:57:36.449Z,100379.98
2018-06-14T13:00:05.109Z,100375.86
2018-06-14T13:02:33.697Z,100366.93
2018-06-14T13:05:02.282Z,100368.73
2018-06-14T13:07:30.818Z,100362.11
2018-06-14T13:09:59.262Z,100360.34
2018-06-14T13:12:28.075Z,100355.77
2018-06-14T13:14:56.645Z,100357.16
2018-06-14T13:17:25.160Z,100360.25
2018-06-14T13:19:53.667Z,100355.44
2018-06-14T13:22:22.193Z,100353.61
2018-06-14T13:24:50.944Z,100342.56
2018-06-14T13:27:19.711Z,100345.81
2018-06-14T13:29:48.312Z,100339.89
2018-06-14T13:32:16.881Z,100341.20
2018-06-14T13:34:45.405Z,100335.69
2018-06-14T13:37:13.967Z,100335.78
2018-06-14T13:39:42.593Z,100333.82
2018-06-14T13:42:11.255Z,100327.45
2018-06-14T13:44:39.856Z,100338.70
2018-06-14T13:47:08.338Z,100330.29
2018-06-14T13:49:36.985Z,100327.17
2018-06-14T13:52:05.643Z,100317.56
2018-06-14T13:54:34.159Z,100325.31
2018-06-14T13:57:02.760Z,100327.83
2018-06-14T13:59:31.336Z,100331.00
2018-06-14T14:01:59.848Z,100324.00
2018-06-14T14:04:28.386Z,100326.08
2018-06-14T14:07:01.014Z,100319.80
2018-06-14T14:09:29.577Z,100312.55
2018-06-14T14:11:58.078Z,100311.37
2018-06-14T14:14:26.538Z,100309.88
2018-06-14T14:16:55.119Z,100311.58
2018-06-14T14:19:23.926Z,100317.56
2018-06-14T14:21:52.598Z,100310.55
2018-06-14T14:24:21.813Z,100312.74
2018-06-14T14:26:50.436Z,100304.75
2018-06-14T14:29:19.108Z,100305.14
2018-06-14T14:31:47.997Z,100308.48
2018-06-14T14:34:16.644Z,100302.95
2018-06-14T14:36:45.182Z,100308.24
2018-06-14T14:39:14.038Z,100291.64
2018-06-14T14:41:43.287Z,100293.44
2018-06-14T14:44:11.965Z,100292.50
2018-06-14T14:46:40.719Z,100291.91
2018-06-14T14:49:09.274Z,100293.29
2018-06-14T14:51:37.855Z,100285.07
2018-06-14T14:54:06.819Z,100290.20
2018-06-14T14:56:37.781Z,100287.93
2018-06-14T14:59:06.374Z,100282.02
2018-06-14T15:01:35.261Z,100289.80
2018-06-14T15:04:04.120Z,100292.41
2018-06-14T15:06:33.202Z,100285.73
2018-06-14T15:09:02.063Z,100286.22
2018-06-14T15:11:30.577Z,100284.55
2018-06-14T15:13:59.608Z,100283.88
2018-06-14T15:16:28.791Z,100291.61
2018-06-14T15:18:57.305Z,100288.22
2018-06-14T15:21:25.831Z,100288.52
2018-06-14T15:23:54.496Z,100281.39
2018-06-14T15:26:23.723Z,100279.38
2018-06-14T15:28:53.408Z,100283.88
2018-06-14T15:31:22.117Z,100277.59
2018-06-14T15:33:51.071Z,100278.98
2018-06-14T15:36:20.192Z,100281.21
2018-06-14T15:38:49.229Z,100281.94
2018-06-14T15:41:17.740Z,100279.12
2018-06-14T15:43:46.323Z,100278.36
2018-06-14T15:46:15.095Z,100270.97
2018-06-14T15:48:43.679Z,100269.12
2018-06-14T15:51:12.685Z,100265.55
2018-06-14T15:53:41.190Z,100261.97
2018-06-14T15:56:26.184Z,100261.20
2018-06-14T15:58:54.868Z,100261.00
2018-06-14T16:01:23.830Z,100262.78
2018-06-14T16:03:52.477Z,100252.44
2018-06-14T16:06:21.130Z,100258.45
2018-06-14T16:08:50.000Z,100258.06
2018-06-14T16:11:18.857Z,100258.80
2018-06-14T16:13:47.661Z,100251.86
2018-06-14T16:16:16.404Z,100259.11
2018-06-14T16:18:45.233Z,100262.11
2018-06-14T16:21:13.865Z,100256.50
2018-06-14T16:23:42.609Z,100258.28
2018-06-14T16:26:11.605Z,100254.80
2018-06-14T16:28:40.253Z,100256.60
2018-06-14T16:31:08.976Z,100253.84
2018-06-14T16:33:37.961Z,100253.91
2018-06-14T16:36:06.628Z,100255.63
2018-06-14T16:38:35.742Z,100257.48
2018-06-14T16:41:05.046Z,100253.57
2018-06-14T16:43:34.486Z,100251.23
2018-06-14T16:46:03.439Z,100249.59
2018-06-14T16:48:32.084Z,100259.75
2018-06-14T16:51:00.993Z,100257.14
2018-06-14T16:53:29.784Z,100260.46
2018-06-14T16:55:58.361Z,100257.50
2018-06-14T16:58:27.258Z,100259.73
2018-06-14T17:00:55.993Z,100259.88
2018-06-14T17:03:25.573Z,100269.47
2018-06-14T17:05:54.240Z,100269.86
2018-06-14T17:08:22.839Z,100266.36
2018-06-14T17:10:51.504Z,100270.85
2018-06-14T17:13:20.236Z,100277.21
2018-06-14T17:15:49.257Z,100272.13
2018-06-14T17:18:17.738Z,100272.03
2018-06-14T17:20:46.317Z,100272.76
2018-06-14T17:23:14.995Z,100277.59
2018-06-14T17:25:43.622Z,100273.17
2018-06-14T17:28:12.197Z,100281.70
2018-06-14T17:30:41.086Z,100285.62
2018-06-14T17:33:09.637Z,100295.14
2018-06-14T17:35:38.390Z,100287.89
2018-06-14T17:38:07.097Z,100294.85
2018-06-14T17:40:35.630Z,100299.02
2018-06-14T17:43:04.635Z,100304.16
2018-06-14T17:45:33.229Z,100308.45
2018-06-14T17:48:01.867Z,100309.02
2018-06-14T17:50:30.400Z,100307.54
2018-06-14T17:52:58.957Z,100314.31
2018-06-14T17:55:27.557Z,100320.17
2018-06-14T17:57:56.646Z,100320.34
2018-06-14T18:00:25.311Z,100321.52
2018-06-14T18:02:54.104Z,100323.64
2018-06-14T18:05:22.816Z,100328.59
2018-06-14T18:07:51.684Z,100327.64
2018-06-14T18:10:20.466Z,100325.99
2018-06-14T18:12:49.114Z,100332.06
2018-06-14T18:15:17.663Z,100336.80
2018-06-14T18:17:46.276Z,100337.89
2018-06-14T18:20:15.133Z,100343.22
2018-06-14T18:22:43.862Z,100343.66
2018-06-14T18:25:12.396Z,100350.17
2018-06-14T18:27:41.062Z,100351.03
2018-06-14T18:30:10.209Z,100356.89
2018-06-14T18:32:38.805Z,100347.03
2018-06-14T18:35:07.291Z,100356.36
2018-06-14T18:37:35.950Z,100349.67
2018-06-14T18:40:04.625Z,100355.23
2018-06-14T18:42:33.338Z,100350.77
2018-06-14T18:45:01.869Z,100350.58
2018-06-14T18:47:30.412Z,100356.00
2018-06-14T18:49:59.096Z,100354.31
2018-06-14T18:52:27.610Z,100357.59
2018-06-14T18:54:56.377Z,100359.56
2018-06-14T18:57:25.212Z,100358.08
2018-06-14T18:59:54.153Z,100355.95
2018-06-14T19:02:22.672Z,100361.88
2018-06-14T19:04:51.413Z,100364.38
2018-06-14T19:07:20.053Z,100371.48
2018-06-14T19:09:49.005Z,100375.55
2018-06-14T19:12:18.196Z,100374.45
2018-06-14T19:14:46.931Z,100385.30
2018-06-14T19:17:15.544Z,100387.34
2018-06-14T19:19:44.234Z,100397.84
2018-06-14T19:22:12.928Z,100409.48
2018-06-14T19:24:41.475Z,100411.20
2018-06-14T19:27:10.020Z,100420.52
2018-06-14T19:29:38.948Z,100429.84
2018-06-14T19:32:07.970Z,100435.26
2018-06-14T19:34:37.268Z,100439.36
2018-06-14T19:37:06.659Z,100446.09
2018-06-14T19:39:35.576Z,100447.06
2018-06-14T19:42:04.531Z,100461.32
2018-06-14T19:44:33.014Z,100471.76
2018-06-14T19:47:02.414Z,100470.45
2018-06-14T19:49:31.314Z,100478.69
2018-06-14T19:52:00.123Z,100484.11
2018-06-14T19:54:28.647Z,100483.94
2018-06-14T19:56:57.223Z,100484.87
2018-06-14T19:59:26.514Z,100484.53
2018-06-14T20:01:55.484Z,100491.25
2018-06-14T20:04:24.679Z,100490.63
2018-06-14T20:06:53.372Z,100494.89
2018-06-14T20:09:22.333Z,100496.18
2018-06-14T20:11:51.351Z,100500.39
2018-06-14T20:14:19.906Z,100492.92
2018-06-14T20:16:48.740Z,100497.59
2018-06-14T20:19:20.146Z,100502.00
2018-06-14T20:21:49.199Z,100505.83
2018-06-14T20:24:18.105Z,100492.64
2018-06-14T20:26:46.819Z,100499.88
2018-06-14T20:29:15.598Z,100500.86
2018-06-14T20:31:44.711Z,100506.86
2018-06-14T20:34:13.780Z,100504.59
2018-06-14T20:36:42.585Z,100506.29
2018-06-14T20:39:12.896Z,100506.72
2018-06-14T20:41:41.653Z,100511.78
2018-06-14T20:44:11.146Z,100510.83
2018-06-14T20:46:39.703Z,100513.00
2018-06-14T20:49:08.433Z,100515.39
2018-06-14T20:51:36.975Z,100514.70
2018-06-14T20:54:05.635Z,100520.96
2018-06-14T20:56:34.889Z,100521.59
2018-06-14T20:59:04.287Z,100521.34
2018-06-14T21:01:33.167Z,100521.84
2018-06-14T21:04:02.485Z,100524.33
2018-06-14T21:06:32.718Z,100526.50
2018-06-14T21:09:08.925Z,100527.80
2018-06-14T21:11:44.179Z,100532.47
2018-06-14T21:14:12.676Z,100536.05
2018-06-14T21:16:42.996Z,100541.52
2018-06-14T21:19:15.751Z,100533.06
2018-06-14T21:21:44.596Z,100534.60
2018-06-14T21:24:13.141Z,100541.22
2018-06-14T21:26:41.606Z,100538.98
2018-06-14T21:29:10.219Z,100543.80
2018-06-14T21:31:38.699Z,100534.53
2018-06-14T21:34:08.055Z,100542.47
2018-06-14T21:36:36.909Z,100537.03
2018-06-14T21:39:09.048Z,100540.42
2018-06-14T21:41:38.047Z,100544.91
2018-06-14T21:44:07.610Z,100546.34
2018-06-14T21:46:36.398Z,100549.20
2018-06-14T21:49:06.236Z,100549.70
2018-06-14T21:51:34.708Z,100544.78
2018-06-14T21:54:03.285Z,100552.16
2018-06-14T21:56:31.800Z,100546.21
2018-06-14T21:59:00.338Z,100549.03
2018-06-14T22:01:28.849Z,100553.42
2018-06-14T22:03:59.591Z,100551.16
2018-06-14T22:06:29.518Z,100546.96
2018-06-14T22:08:58.244Z,100551.16
2018-06-14T22:11:26.989Z,100550.05
2018-06-14T22:13:55.629Z,100548.72
2018-06-14T22:16:24.917Z,100548.48
2018-06-14T22:18:53.724Z,100549.50
2018-06-14T22:21:22.577Z,100548.27
2018-06-14T22:23:51.584Z,100547.05
2018-06-14T22:26:20.236Z,100549.64
2018-06-14T22:28:49.079Z,100547.05
2018-06-14T22:31:17.713Z,100551.81
2018-06-14T22:33:57.410Z,100551.08
2018-06-14T22:36:26.196Z,100550.70
2018-06-14T22:38:55.001Z,100542.45
2018-06-14T22:41:23.791Z,100544.58
2018-06-14T22:43:52.619Z,100543.74
2018-06-14T22:46:21.504Z,100547.11
2018-06-14T22:48:50.313Z,100543.97
2018-06-14T22:51:20.563Z,100539.31
2018-06-14T22:53:49.171Z,100536.91
2018-06-14T22:56:17.831Z,100531.29
2018-06-14T22:58:47.166Z,100532.48
2018-06-14T23:01:35.172Z,100533.36
2018-06-14T23:04:04.389Z,100530.91
2018-06-14T23:06:33.203Z,100528.20
2018-06-14T23:09:21.458Z,100525.19
2018-06-14T23:11:50.132Z,100528.92
2018-06-14T23:14:18.932Z,100526.66
2018-06-14T23:16:47.440Z,100523.16
2018-06-14T23:19:16.080Z,100525.29
2018-06-14T23:21:44.855Z,100525.80
2018-06-14T23:24:13.452Z,100526.53
2018-06-14T23:26:42.341Z,100530.41
2018-06-14T23:29:11.023Z,100531.19
2018-06-14T23:31:39.838Z,100525.11
2018-06-14T23:34:08.599Z,100528.98
2018-06-14T23:36:37.464Z,100526.66
2018-06-14T23:39:07.010Z,100528.70
2018-06-14T23:41:35.758Z,100527.88
2018-06-14T23:44:04.316Z,100524.08
2018-06-14T23:46:32.877Z,100523.54
2018-06-14T23:49:01.454Z,100523.54
2018-06-14T23:51:29.938Z,100519.67
2018-06-14T23:53:58.464Z,100524.97
2018-06-14T23:56:27.081Z,100526.26
2018-06-14T23:58:55.577Z,100530.91
